createdAt,value
2018-12-24T00:02:22.527Z,87.80
2018-12-24T00:04:51.025Z,89.20
2018-12-24T00:07:19.493Z,89.50
2018-12-24T00:09:47.921Z,89.30
2018-12-24T00:12:16.315Z,89.00
2018-12-24T00:14:44.855Z,89.00
2018-12-24T00:17:13.339Z,88.80
2018-12-24T00:19:41.942Z,88.20
2018-12-24T00:22:10.418Z,88.60
2018-12-24T00:24:38.923Z,90.10
2018-12-24T00:27:07.396Z,89.40
2018-12-24T00:29:35.893Z,90.20
2018-12-24T00:32:04.380Z,89.10
2018-12-24T00:34:32.889Z,90.00
2018-12-24T00:37:01.367Z,89.40
2018-12-24T00:39:29.874Z,90.00
2018-12-24T00:41:58.341Z,90.10
2018-12-24T00:44:26.740Z,90.30
2018-12-24T00:46:55.266Z,89.10
2018-12-24T00:49:23.714Z,89.40
2018-12-24T00:51:52.217Z,89.50
2018-12-24T00:54:20.687Z,89.70
2018-12-24T00:56:49.202Z,89.40
2018-12-24T00:59:17.774Z,89.70
2018-12-24T01:01:46.228Z,89.20
2018-12-24T01:04:14.670Z,89.40
2018-12-24T01:06:43.174Z,89.00
2018-12-24T01:09:11.644Z,89.30
2018-12-24T01:11:40.146Z,88.90
2018-12-24T01:14:08.542Z,89.00
2018-12-24T01:16:36.972Z,89.80
2018-12-24T01:19:05.438Z,88.60
2018-12-24T01:21:33.946Z,88.90
2018-12-24T01:24:02.422Z,89.00
2018-12-24T01:26:30.922Z,90.00
2018-12-24T01:28:59.390Z,90.00
2018-12-24T01:31:27.890Z,88.70
2018-12-24T01:33:56.373Z,89.70
2018-12-24T01:36:24.881Z,89.00
2018-12-24T01:38:53.350Z,90.20
2018-12-24T01:41:21.777Z,90.30
2018-12-24T01:43:50.187Z,90.20
2018-12-24T01:46:18.685Z,89.20
2018-12-24T01:48:47.206Z,90.00
2018-12-24T01:51:15.709Z,90.20
2018-12-24T01:53:44.202Z,90.20
2018-12-24T01:56:12.685Z,89.90
2018-12-24T01:58:41.443Z,89.90
2018-12-24T02:01:09.945Z,90.30
2018-12-24T02:03:38.419Z,90.00
2018-12-24T02:06:06.893Z,90.10
2018-12-24T02:08:35.321Z,90.40
2018-12-24T02:11:03.717Z,90.40
2018-12-24T02:13:32.217Z,90.70
2018-12-24T02:16:00.693Z,90.70
2018-12-24T02:18:29.193Z,90.60
2018-12-24T02:20:57.670Z,90.60
2018-12-24T02:23:26.170Z,90.80
2018-12-24T02:25:54.639Z,90.50
2018-12-24T02:28:23.063Z,90.70
2018-12-24T02:30:51.545Z,90.30
2018-12-24T02:33:19.975Z,90.80
2018-12-24T02:35:48.821Z,90.60
2018-12-24T02:38:17.331Z,90.60
2018-12-24T02:40:45.808Z,90.80
2018-12-24T02:43:14.316Z,90.50
2018-12-24T02:45:42.788Z,90.50
2018-12-24T02:48:11.301Z,90.60
2018-12-24T02:50:39.777Z,90.60
2018-12-24T02:53:08.281Z,90.50
2018-12-24T02:55:36.757Z,90.30
2018-12-24T02:58:05.268Z,90.50
2018-12-24T03:00:33.743Z,90.70
2018-12-24T03:03:02.261Z,90.70
2018-12-24T03:05:30.715Z,90.30
2018-12-24T03:07:59.243Z,90.50
2018-12-24T03:10:27.704Z,90.70
2018-12-24T03:13:02.481Z,91.20
2018-12-24T03:15:26.325Z,90.90
2018-12-24T03:17:54.755Z,90.90
2018-12-24T03:20:23.241Z,91.10
2018-12-24T03:22:51.764Z,90.90
2018-12-24T03:25:20.247Z,91.40
2018-12-24T03:27:48.724Z,91.00
2018-12-24T03:30:17.288Z,91.60
2018-12-24T03:32:45.764Z,90.90
2018-12-24T03:35:14.265Z,91.30
2018-12-24T03:37:42.734Z,91.70
2018-12-24T03:40:11.169Z,91.80
2018-12-24T03:42:39.683Z,91.30
2018-12-24T03:45:08.183Z,90.90
2018-12-24T03:47:36.662Z,91.10
2018-12-24T03:50:05.546Z,90.60
2018-12-24T03:52:34.026Z,90.60
2018-12-24T03:55:02.481Z,90.60
2018-12-24T03:57:30.943Z,90.40
2018-12-24T03:59:59.434Z,90.80
2018-12-24T04:02:27.905Z,90.80
2018-12-24T04:04:56.406Z,91.00
2018-12-24T04:07:24.806Z,90.90
2018-12-24T04:09:53.327Z,91.00
2018-12-24T04:12:21.726Z,91.00
2018-12-24T04:14:50.231Z,91.40
2018-12-24T04:17:18.704Z,91.50
2018-12-24T04:19:47.300Z,91.30
2018-12-24T04:22:15.847Z,91.80
2018-12-24T04:24:44.270Z,91.20
2018-12-24T04:27:12.854Z,90.70
2018-12-24T04:29:44.407Z,89.70
2018-12-24T04:32:12.879Z,89.10
2018-12-24T04:34:41.418Z,88.40
2018-12-24T04:37:09.989Z,89.50
2018-12-24T04:39:38.381Z,88.60
2018-12-24T04:42:06.806Z,88.80
2018-12-24T04:44:35.281Z,89.00
2018-12-24T04:47:03.782Z,88.40
2018-12-24T04:49:32.345Z,88.60
2018-12-24T04:52:00.862Z,88.70
2018-12-24T04:54:29.347Z,89.70
2018-12-24T04:56:57.846Z,88.70
2018-12-24T04:59:26.239Z,88.90
2018-12-24T05:01:54.850Z,89.70
2018-12-24T05:04:23.322Z,88.10
2018-12-24T05:06:51.818Z,89.20
2018-12-24T05:09:20.290Z,88.20
2018-12-24T05:11:48.814Z,87.60
2018-12-24T05:14:17.284Z,88.20
2018-12-24T05:16:45.857Z,87.60
2018-12-24T05:19:14.358Z,86.30
2018-12-24T05:21:42.834Z,87.00
2018-12-24T05:24:11.336Z,87.30
2018-12-24T05:26:39.811Z,88.10
2018-12-24T05:29:08.314Z,88.00
2018-12-24T05:31:36.790Z,87.70
2018-12-24T05:34:05.294Z,88.40
2018-12-24T05:36:33.763Z,86.90
2018-12-24T05:39:02.187Z,87.30
2018-12-24T05:41:30.582Z,88.40
2018-12-24T05:43:59.018Z,86.70
2018-12-24T05:46:27.487Z,87.20
2018-12-24T05:48:55.887Z,86.70
2018-12-24T05:51:24.386Z,87.50
2018-12-24T05:53:52.855Z,86.70
2018-12-24T05:56:21.366Z,86.60
2018-12-24T05:58:49.835Z,87.60
2018-12-24T06:01:18.262Z,85.80
2018-12-24T06:03:46.775Z,85.30
2018-12-24T06:06:15.288Z,85.30
2018-12-24T06:08:43.764Z,85.30
2018-12-24T06:11:12.333Z,84.60
2018-12-24T06:13:40.837Z,85.10
2018-12-24T06:16:09.254Z,83.80
2018-12-24T06:18:37.745Z,85.80
2018-12-24T06:21:06.213Z,84.90
2018-12-24T06:23:34.713Z,83.50
2018-12-24T06:26:03.188Z,84.20
2018-12-24T06:28:31.679Z,83.50
2018-12-24T06:31:00.157Z,83.50
2018-12-24T06:33:28.651Z,82.60
2018-12-24T06:35:57.121Z,83.00
2018-12-24T06:38:25.552Z,83.50
2018-12-24T06:40:53.965Z,83.60
2018-12-24T06:43:22.466Z,82.80
2018-12-24T06:45:50.943Z,83.70
2018-12-24T06:48:19.445Z,83.20
2018-12-24T06:50:47.922Z,83.60
2018-12-24T06:53:16.425Z,83.30
2018-12-24T06:55:44.929Z,84.40
2018-12-24T06:58:13.440Z,84.20
2018-12-24T07:00:41.923Z,85.20
2018-12-24T07:03:10.425Z,84.20
2018-12-24T07:05:38.913Z,85.60
2018-12-24T07:08:07.402Z,85.30
2018-12-24T07:10:35.875Z,84.30
2018-12-24T07:13:04.377Z,84.70
2018-12-24T07:15:32.852Z,83.40
2018-12-24T07:18:01.365Z,84.30
2018-12-24T07:20:29.767Z,84.80
2018-12-24T07:22:58.238Z,85.40
2018-12-24T07:25:26.658Z,85.20
2018-12-24T07:27:55.053Z,84.90
2018-12-24T07:30:23.559Z,84.70
2018-12-24T07:32:52.021Z,84.50
2018-12-24T07:35:20.502Z,86.00
2018-12-24T07:37:49.013Z,85.40
2018-12-24T07:40:17.508Z,85.80
2018-12-24T07:42:45.978Z,85.30
2018-12-24T07:45:14.482Z,85.00
2018-12-24T07:47:43.388Z,85.40
2018-12-24T07:50:11.883Z,84.50
2018-12-24T07:52:40.365Z,85.10
2018-12-24T07:55:08.873Z,85.90
2018-12-24T07:57:37.346Z,85.30
2018-12-24T08:00:06.901Z,84.60
2018-12-24T08:02:35.357Z,84.60
2018-12-24T08:05:03.877Z,85.20
2018-12-24T08:07:32.355Z,85.70
2018-12-24T08:10:00.853Z,84.70
2018-12-24T08:12:29.245Z,85.10
2018-12-24T08:14:57.755Z,84.10
2018-12-24T08:17:26.231Z,85.30
2018-12-24T08:19:54.734Z,84.40
2018-12-24T08:22:23.213Z,85.40
2018-12-24T08:24:51.708Z,85.60
2018-12-24T08:27:20.181Z,85.30
2018-12-24T08:29:48.681Z,84.90
2018-12-24T08:32:17.215Z,84.70
2018-12-24T08:34:45.731Z,84.10
2018-12-24T08:37:14.218Z,84.20
2018-12-24T08:39:42.709Z,85.30
2018-12-24T08:42:11.105Z,83.30
2018-12-24T08:44:41.877Z,85.10
2018-12-24T08:47:09.727Z,84.90
2018-12-24T08:49:38.215Z,84.30
2018-12-24T08:52:06.721Z,83.70
2018-12-24T08:54:35.201Z,83.10
2018-12-24T08:57:03.710Z,84.50
2018-12-24T08:59:32.111Z,84.20
2018-12-24T09:02:00.625Z,83.20
2018-12-24T09:04:29.105Z,83.90
2018-12-24T09:06:57.629Z,83.50
2018-12-24T09:09:26.088Z,82.30
2018-12-24T09:11:54.590Z,82.00
2018-12-24T09:14:23.062Z,82.20
2018-12-24T09:16:51.491Z,81.70
2018-12-24T09:19:20.066Z,81.40
2018-12-24T09:21:48.665Z,80.50
2018-12-24T09:24:17.146Z,80.30
2018-12-24T09:26:45.642Z,80.90
2018-12-24T09:29:14.053Z,80.40
2018-12-24T09:31:42.534Z,80.10
2018-12-24T09:34:10.925Z,81.60
2018-12-24T09:36:39.342Z,81.90
2018-12-24T09:39:07.734Z,81.90
2018-12-24T09:41:36.164Z,80.60
2018-12-24T09:44:04.675Z,81.80
2018-12-24T09:46:33.178Z,81.20
2018-12-24T09:49:01.651Z,82.60
2018-12-24T09:51:30.154Z,80.10
2018-12-24T09:53:58.547Z,81.10
2018-12-24T09:56:26.971Z,80.20
2018-12-24T09:58:55.447Z,79.80
2018-12-24T10:01:24.012Z,80.30
2018-12-24T10:03:52.603Z,79.50
2018-12-24T10:06:21.036Z,79.10
2018-12-24T10:08:49.510Z,79.90
2018-12-24T10:11:18.022Z,78.10
2018-12-24T10:13:46.709Z,79.40
2018-12-24T10:16:15.282Z,80.00
2018-12-24T10:18:43.712Z,81.70
2018-12-24T10:21:12.178Z,80.10
2018-12-24T10:23:40.706Z,80.70
2018-12-24T10:26:09.109Z,80.30
2018-12-24T10:28:37.612Z,80.90
2018-12-24T10:31:06.089Z,81.40
2018-12-24T10:33:34.595Z,82.00
2018-12-24T10:36:03.066Z,80.90
2018-12-24T10:38:31.567Z,80.90
2018-12-24T10:41:00.030Z,81.00
2018-12-24T10:43:28.527Z,80.50
2018-12-24T10:45:56.926Z,79.80
2018-12-24T10:48:25.434Z,77.70
2018-12-24T10:50:53.826Z,76.60
2018-12-24T10:53:22.338Z,77.30
2018-12-24T10:55:50.821Z,78.20
2018-12-24T10:58:19.316Z,75.40
2018-12-24T11:00:47.790Z,73.20
2018-12-24T11:03:16.294Z,71.10
2018-12-24T11:05:44.778Z,71.80
2018-12-24T11:08:13.280Z,70.70
2018-12-24T11:10:41.782Z,71.80
2018-12-24T11:13:10.283Z,73.60
2018-12-24T11:15:38.762Z,73.40
2018-12-24T11:18:07.262Z,74.70
2018-12-24T11:20:35.731Z,74.20
2018-12-24T11:23:04.238Z,73.10
2018-12-24T11:25:32.709Z,74.40
2018-12-24T11:28:01.206Z,74.10
2018-12-24T11:30:29.682Z,74.80
2018-12-24T11:32:58.162Z,74.60
2018-12-24T11:35:26.655Z,75.50
2018-12-24T11:37:55.135Z,76.00
2018-12-24T11:40:23.643Z,75.10
2018-12-24T11:42:52.108Z,74.30
2018-12-24T11:45:20.614Z,74.50
2018-12-24T11:47:49.090Z,74.80
2018-12-24T11:50:17.595Z,73.90
2018-12-24T11:52:46.079Z,73.40
2018-12-24T11:55:14.585Z,72.40
2018-12-24T11:57:43.062Z,74.20
2018-12-24T12:00:11.643Z,74.40
2018-12-24T12:02:40.141Z,72.50
2018-12-24T12:05:08.648Z,74.40
2018-12-24T12:07:37.129Z,74.30
2018-12-24T12:10:06.571Z,74.30
2018-12-24T12:12:35.060Z,75.70
2018-12-24T12:15:03.562Z,75.90
2018-12-24T12:17:32.119Z,77.30
2018-12-24T12:20:00.619Z,76.60
2018-12-24T12:22:29.037Z,77.00
2018-12-24T12:24:57.525Z,75.70
2018-12-24T12:27:26.009Z,75.70
2018-12-24T12:29:54.514Z,78.40
2018-12-24T12:32:22.983Z,78.20
2018-12-24T12:34:51.490Z,79.90
2018-12-24T12:37:19.976Z,79.90
2018-12-24T12:39:48.474Z,79.80
2018-12-24T12:42:17.756Z,81.50
2018-12-24T12:44:46.379Z,82.40
2018-12-24T12:47:14.858Z,81.30
2018-12-24T12:49:43.371Z,80.60
2018-12-24T12:52:11.841Z,78.60
2018-12-24T12:54:40.350Z,77.50
2018-12-24T12:57:08.831Z,77.20
2018-12-24T12:59:37.319Z,78.20
2018-12-24T13:02:05.775Z,75.90
2018-12-24T13:04:34.279Z,75.90
2018-12-24T13:07:02.782Z,75.90
2018-12-24T13:09:31.271Z,73.80
2018-12-24T13:11:59.779Z,74.50
2018-12-24T13:14:28.188Z,74.20
2018-12-24T13:16:56.683Z,74.10
2018-12-24T13:19:25.164Z,73.50
2018-12-24T13:21:53.659Z,74.00
2018-12-24T13:24:22.141Z,73.40
2018-12-24T13:26:50.640Z,72.20
2018-12-24T13:29:19.039Z,73.20
2018-12-24T13:31:47.691Z,72.00
2018-12-24T13:34:16.166Z,71.60
2018-12-24T13:36:44.664Z,72.40
2018-12-24T13:39:13.147Z,73.10
2018-12-24T13:41:41.642Z,72.00
2018-12-24T13:44:10.034Z,72.50
2018-12-24T13:46:38.466Z,72.70
2018-12-24T13:49:06.938Z,71.60
2018-12-24T13:51:35.359Z,72.60
2018-12-24T13:54:44.563Z,72.70
2018-12-24T13:57:12.970Z,72.60
2018-12-24T13:59:41.334Z,72.20
2018-12-24T14:02:09.752Z,71.70
2018-12-24T14:04:38.114Z,71.60
2018-12-24T14:07:06.479Z,71.90
2018-12-24T14:09:34.875Z,72.60
2018-12-24T14:12:03.243Z,72.00
2018-12-24T14:14:31.639Z,72.50
2018-12-24T14:17:00.032Z,72.60
2018-12-24T14:19:28.351Z,71.50
2018-12-24T14:21:56.713Z,73.50
2018-12-24T14:24:25.109Z,73.10
2018-12-24T14:26:53.473Z,73.60
2018-12-24T14:29:21.879Z,74.80
2018-12-24T14:31:50.245Z,75.80
2018-12-24T14:34:18.648Z,75.30
2018-12-24T14:36:48.277Z,75.00
2018-12-24T14:39:16.665Z,75.40
2018-12-24T14:41:45.043Z,75.50
2018-12-24T14:44:13.442Z,74.40
2018-12-24T14:46:41.917Z,75.00
2018-12-24T14:49:10.477Z,76.70
2018-12-24T14:51:38.865Z,75.70
2018-12-24T14:54:07.266Z,77.40
2018-12-24T14:56:35.633Z,78.20
2018-12-24T14:59:04.042Z,81.40
2018-12-24T15:01:32.417Z,83.20
2018-12-24T15:04:00.814Z,83.00
2018-12-24T15:06:29.183Z,83.00
2018-12-24T15:08:57.593Z,83.00
2018-12-24T15:11:25.957Z,81.50
2018-12-24T15:13:54.367Z,82.20
2018-12-24T15:16:22.734Z,79.70
2018-12-24T15:18:51.025Z,79.10
2018-12-24T15:21:19.429Z,76.90
2018-12-24T15:23:47.869Z,77.00
2018-12-24T15:26:16.279Z,77.30
2018-12-24T15:28:44.645Z,77.50
2018-12-24T15:31:13.044Z,74.30
2018-12-24T15:33:41.405Z,74.40
2018-12-24T15:36:09.803Z,75.40
2018-12-24T15:38:38.173Z,72.90
2018-12-24T15:41:06.579Z,74.70
2018-12-24T15:43:34.946Z,74.30
2018-12-24T15:46:03.337Z,74.70
2018-12-24T15:48:31.636Z,74.10
2018-12-24T15:51:00.045Z,73.50
2018-12-24T15:53:28.599Z,73.20
2018-12-24T15:55:56.995Z,73.20
2018-12-24T15:58:25.357Z,74.60
2018-12-24T16:00:53.682Z,73.40
2018-12-24T16:03:22.047Z,73.90
2018-12-24T16:05:50.454Z,74.00
2018-12-24T16:08:18.754Z,73.90
2018-12-24T16:10:47.413Z,74.80
2018-12-24T16:13:15.779Z,74.20
2018-12-24T16:15:44.153Z,73.90
2018-12-24T16:18:12.557Z,72.70
2018-12-24T16:20:40.854Z,73.60
2018-12-24T16:23:09.413Z,73.00
2018-12-24T16:25:37.704Z,73.00
2018-12-24T16:28:06.113Z,71.80
2018-12-24T16:30:34.470Z,72.70
2018-12-24T16:33:02.897Z,73.50
2018-12-24T16:35:31.233Z,73.00
2018-12-24T16:37:59.661Z,73.20
2018-12-24T16:40:28.122Z,74.40
2018-12-24T16:42:56.537Z,75.20
2018-12-24T16:45:24.909Z,73.90
2018-12-24T16:47:53.298Z,75.40
2018-12-24T16:50:21.605Z,76.00
2018-12-24T16:52:50.003Z,74.80
2018-12-24T16:55:18.369Z,74.40
2018-12-24T16:57:46.827Z,74.80
2018-12-24T17:00:15.341Z,75.50
2018-12-24T17:02:43.672Z,75.60
2018-12-24T17:05:12.045Z,75.20
2018-12-24T17:07:40.441Z,75.20
2018-12-24T17:10:08.743Z,75.50
2018-12-24T17:12:37.213Z,75.20
2018-12-24T17:15:05.589Z,75.40
2018-12-24T17:17:33.961Z,74.20
2018-12-24T17:20:02.377Z,75.70
2018-12-24T17:22:30.758Z,74.50
2018-12-24T17:24:59.168Z,73.90
2018-12-24T17:27:27.529Z,74.20
2018-12-24T17:29:55.885Z,73.60
2018-12-24T17:32:24.181Z,72.70
2018-12-24T17:34:52.585Z,73.60
2018-12-24T17:37:20.981Z,74.30
2018-12-24T17:39:51.063Z,72.90
2018-12-24T17:42:19.544Z,74.00
2018-12-24T17:44:48.221Z,73.80
2018-12-24T17:47:16.626Z,73.80
2018-12-24T17:49:45.083Z,73.90
2018-12-24T17:52:13.457Z,73.90
2018-12-24T17:54:41.793Z,73.90
2018-12-24T17:57:10.184Z,75.20
2018-12-24T17:59:38.598Z,73.60
2018-12-24T18:02:06.982Z,73.70
2018-12-24T18:04:35.402Z,73.20
2018-12-24T18:07:03.858Z,72.70
2018-12-24T18:09:32.333Z,72.70
2018-12-24T18:12:00.797Z,73.40
2018-12-24T18:14:29.256Z,71.10
2018-12-24T18:16:57.694Z,72.70
2018-12-24T18:19:26.099Z,72.20
2018-12-24T18:21:54.537Z,72.30
2018-12-24T18:24:23.008Z,72.40
2018-12-24T18:26:51.475Z,70.80
2018-12-24T18:29:19.885Z,72.10
2018-12-24T18:31:48.368Z,72.20
2018-12-24T18:34:16.782Z,70.20
2018-12-24T18:36:45.209Z,71.50
2018-12-24T18:39:13.593Z,72.70
2018-12-24T18:41:41.997Z,72.20
2018-12-24T18:44:10.373Z,71.70
2018-12-24T18:46:38.781Z,72.60
2018-12-24T18:49:07.171Z,71.10
2018-12-24T18:51:35.709Z,71.50
2018-12-24T18:54:04.095Z,70.80
2018-12-24T18:56:32.447Z,71.30
2018-12-24T18:59:00.838Z,71.20
2018-12-24T19:01:29.463Z,71.70
2018-12-24T19:03:57.794Z,73.10
2018-12-24T19:06:26.212Z,71.20
2018-12-24T19:08:54.617Z,72.60
2018-12-24T19:11:23.183Z,72.50
2018-12-24T19:13:51.572Z,70.70
2018-12-24T19:16:20.015Z,72.20
2018-12-24T19:18:48.396Z,71.30
2018-12-24T19:21:16.780Z,72.00
2018-12-24T19:23:45.206Z,74.70
2018-12-24T19:26:13.594Z,73.40
2018-12-24T19:28:42.016Z,72.80
2018-12-24T19:31:10.417Z,72.70
2018-12-24T19:33:39.123Z,72.10
2018-12-24T19:36:07.491Z,71.10
2018-12-24T19:38:36.115Z,70.30
2018-12-24T19:41:04.509Z,72.00
2018-12-24T19:43:32.893Z,73.30
2018-12-24T19:46:01.302Z,72.90
2018-12-24T19:48:29.618Z,72.70
2018-12-24T19:50:58.047Z,71.60
2018-12-24T19:53:26.423Z,71.30
2018-12-24T19:55:55.067Z,73.00
2018-12-24T19:58:23.476Z,71.50
2018-12-24T20:00:51.884Z,71.50
2018-12-24T20:03:20.189Z,72.10
2018-12-24T20:05:48.543Z,71.80
2018-12-24T20:08:16.917Z,72.70
2018-12-24T20:10:45.285Z,73.60
2018-12-24T20:13:13.683Z,72.90
2018-12-24T20:15:42.187Z,73.10
2018-12-24T20:18:10.575Z,73.50
2018-12-24T20:20:38.941Z,73.60
2018-12-24T20:23:07.266Z,73.70
2018-12-24T20:25:35.638Z,72.30
2018-12-24T20:28:04.050Z,72.50
2018-12-24T20:30:32.417Z,72.90
2018-12-24T20:33:00.743Z,71.30
2018-12-24T20:35:29.114Z,72.80
2018-12-24T20:37:57.514Z,72.30
2018-12-24T20:40:25.874Z,72.40
2018-12-24T20:42:54.287Z,72.00
2018-12-24T20:45:22.650Z,71.90
2018-12-24T20:47:51.042Z,71.80
2018-12-24T20:50:19.414Z,71.80
2018-12-24T20:52:47.931Z,71.80
2018-12-24T20:55:16.294Z,71.80
2018-12-24T20:57:44.709Z,73.70
2018-12-24T21:00:13.074Z,73.30
2018-12-24T21:02:41.447Z,72.60
2018-12-24T21:05:09.990Z,72.60
2018-12-24T21:07:38.282Z,72.10
2018-12-24T21:10:06.846Z,72.20
2018-12-24T21:12:35.242Z,72.00
2018-12-24T21:15:04.066Z,72.00
2018-12-24T21:17:32.448Z,72.20
2018-12-24T21:20:00.842Z,72.00
2018-12-24T21:22:29.214Z,73.70
2018-12-24T21:24:57.714Z,72.80
2018-12-24T21:27:26.074Z,71.50
2018-12-24T21:29:54.395Z,72.30
2018-12-24T21:32:22.758Z,72.80
2018-12-24T21:34:51.076Z,73.50
2018-12-24T21:37:19.445Z,73.70
2018-12-24T21:39:47.843Z,73.90
2018-12-24T21:42:16.210Z,74.50
2018-12-24T21:44:44.607Z,74.00
2018-12-24T21:47:12.974Z,74.70
2018-12-24T21:49:41.620Z,75.40
2018-12-24T21:52:10.351Z,76.10
2018-12-24T21:54:38.746Z,74.70
2018-12-24T21:57:07.042Z,75.90
2018-12-24T21:59:35.477Z,76.10
2018-12-24T22:02:03.992Z,76.10
2018-12-24T22:04:32.459Z,75.30
2018-12-24T22:07:00.854Z,75.10
2018-12-24T22:09:29.224Z,75.20
2018-12-24T22:11:57.631Z,76.10
2018-12-24T22:14:25.998Z,76.30
2018-12-24T22:16:54.322Z,76.30
2018-12-24T22:19:22.686Z,76.50
2018-12-24T22:21:51.078Z,76.60
2018-12-24T22:24:19.445Z,76.40
2018-12-24T22:26:47.774Z,76.80
2018-12-24T22:29:16.097Z,77.20
2018-12-24T22:31:44.494Z,76.90
2018-12-24T22:34:12.863Z,77.60
2018-12-24T22:36:41.328Z,77.30
2018-12-24T22:39:09.704Z,78.50
2018-12-24T22:41:38.112Z,80.00
2018-12-24T22:44:06.482Z,81.00
2018-12-24T22:46:34.891Z,80.70
2018-12-24T22:49:03.264Z,79.70
2018-12-24T22:51:31.624Z,80.00
2018-12-24T22:54:00.030Z,80.00
2018-12-24T22:56:28.389Z,80.40
2018-12-24T22:58:56.714Z,80.40
2018-12-24T23:01:25.154Z,80.80
2018-12-24T23:03:53.622Z,81.30
2018-12-24T23:06:21.986Z,80.80
2018-12-24T23:08:50.382Z,80.90
2018-12-24T23:11:18.753Z,81.60
2018-12-24T23:13:47.145Z,81.70
2018-12-24T23:16:15.522Z,82.10
2018-12-24T23:18:49.333Z,81.70
2018-12-24T23:21:13.929Z,81.80
2018-12-24T23:23:42.325Z,82.20
2018-12-24T23:26:10.694Z,82.30
2018-12-24T23:28:39.177Z,82.20
2018-12-24T23:31:07.546Z,82.00
2018-12-24T23:33:35.938Z,82.10
2018-12-24T23:36:04.308Z,82.40
2018-12-24T23:38:32.698Z,82.50
2018-12-24T23:41:01.063Z,83.10
2018-12-24T23:43:29.542Z,82.50
2018-12-24T23:45:57.982Z,82.80
2018-12-24T23:48:26.379Z,83.20
2018-12-24T23:50:54.750Z,83.50
2018-12-24T23:53:23.147Z,82.00
2018-12-24T23:55:51.511Z,82.20
2018-12-24T23:58:19.878Z,82.40
